createdAt,value
2023-05-08T00:02:07.807Z,91.97
2023-05-08T00:04:34.238Z,93.57
2023-05-08T00:07:00.652Z,91.00
2023-05-08T00:09:26.996Z,80.38
2023-05-08T00:11:53.323Z,82.43
2023-05-08T00:14:19.668Z,82.95
2023-05-08T00:16:46.046Z,90.22
2023-05-08T00:19:12.381Z,83.00
2023-05-08T00:21:39.028Z,82.00
2023-05-08T00:24:05.457Z,90.13
2023-05-08T00:26:31.905Z,74.97
2023-05-08T00:28:58.209Z,75.10
2023-05-08T00:31:24.566Z,88.03
2023-05-08T00:33:50.890Z,68.28
2023-05-08T00:36:17.384Z,91.13
2023-05-08T00:38:43.832Z,74.85
2023-05-08T00:41:10.220Z,71.38
2023-05-08T00:43:37.625Z,78.53
2023-05-08T00:46:04.148Z,74.75
2023-05-08T00:48:31.987Z,72.57
2023-05-08T00:50:58.435Z,78.70
2023-05-08T00:53:26.325Z,81.32
2023-05-08T00:55:52.792Z,92.82
2023-05-08T00:58:19.667Z,77.50
2023-05-08T01:00:46.599Z,75.80
2023-05-08T01:03:14.059Z,85.93
2023-05-08T01:05:41.047Z,80.10
2023-05-08T01:08:07.592Z,77.45
2023-05-08T01:10:47.033Z,78.38
2023-05-08T01:13:45.612Z,73.80
2023-05-08T01:16:15.889Z,72.13
2023-05-08T01:18:47.729Z,66.95
2023-05-08T01:21:32.334Z,79.90
2023-05-08T01:24:14.161Z,74.25
2023-05-08T01:26:55.679Z,72.30
2023-05-08T01:29:37.328Z,80.10
2023-05-08T01:32:07.490Z,72.85
2023-05-08T01:34:35.267Z,78.60
2023-05-08T01:37:06.615Z,77.40
2023-05-08T01:39:44.949Z,69.57
2023-05-08T01:42:11.250Z,73.32
2023-05-08T01:44:39.019Z,79.32
2023-05-08T01:47:06.849Z,79.53
2023-05-08T01:49:39.242Z,82.40
2023-05-08T01:52:24.913Z,86.38
2023-05-08T01:57:18.504Z,62.63
2023-05-08T01:59:45.759Z,75.15
2023-05-08T02:02:13.166Z,75.15
2023-05-08T02:04:41.095Z,75.93
2023-05-08T02:07:08.045Z,89.82
2023-05-08T02:09:34.782Z,80.40
2023-05-08T02:12:02.945Z,93.60
2023-05-08T02:14:30.411Z,89.30
2023-05-08T02:16:57.653Z,82.32
2023-05-08T02:19:25.290Z,91.50
2023-05-08T02:21:52.294Z,90.63
2023-05-08T02:24:18.682Z,94.25
2023-05-08T02:26:46.085Z,80.70
2023-05-08T02:29:12.552Z,94.25
2023-05-08T02:31:39.717Z,84.47
2023-05-08T02:34:06.420Z,86.68
2023-05-08T02:36:32.896Z,101.03
2023-05-08T02:38:59.938Z,100.00
2023-05-08T02:41:29.289Z,98.88
2023-05-08T02:43:55.769Z,95.25
2023-05-08T02:46:34.733Z,92.10
2023-05-08T02:49:07.185Z,64.85
2023-05-08T02:51:39.517Z,19.67
2023-05-08T02:54:10.326Z,99.95
2023-05-08T02:56:56.965Z,20.40
2023-05-08T02:59:27.262Z,35.50
2023-05-08T03:02:03.098Z,47.30
2023-05-08T03:04:32.312Z,50.75
2023-05-08T03:06:59.433Z,34.05
2023-05-08T03:09:28.270Z,42.72
2023-05-08T03:11:59.253Z,36.83
2023-05-08T03:14:27.019Z,42.78
2023-05-08T03:16:53.874Z,51.30
2023-05-08T03:19:39.071Z,61.03
2023-05-08T03:22:06.291Z,39.97
2023-05-08T03:24:34.569Z,39.03
2023-05-08T03:27:02.262Z,50.47
2023-05-08T03:29:28.935Z,46.58
2023-05-08T03:31:56.729Z,54.83
2023-05-08T03:34:23.413Z,50.83
2023-05-08T03:36:50.746Z,43.22
2023-05-08T03:39:17.156Z,42.50
2023-05-08T03:41:43.546Z,49.38
2023-05-08T03:44:10.825Z,46.45
2023-05-08T03:46:37.991Z,44.13
2023-05-08T03:49:04.583Z,43.47
2023-05-08T03:51:32.327Z,80.13
2023-05-08T03:53:58.904Z,91.72
2023-05-08T03:56:26.120Z,81.75
2023-05-08T03:59:14.283Z,82.95
2023-05-08T04:01:50.155Z,87.80
2023-05-08T04:04:17.578Z,80.45
2023-05-08T04:06:50.810Z,87.28
2023-05-08T04:09:19.829Z,80.50
2023-05-08T04:11:58.427Z,8.27
2023-05-08T04:14:26.193Z,8.30
2023-05-08T04:16:53.655Z,13.45
2023-05-08T04:19:25.338Z,17.00
2023-05-08T04:21:55.756Z,12.68
2023-05-08T04:24:22.820Z,13.55
2023-05-08T04:26:49.652Z,12.35
2023-05-08T04:29:16.602Z,13.38
2023-05-08T04:31:43.253Z,11.38
2023-05-08T04:34:09.881Z,16.02
2023-05-08T04:36:36.577Z,13.38
2023-05-08T04:39:03.456Z,11.18
2023-05-08T04:41:29.877Z,12.23
2023-05-08T04:43:56.600Z,12.30
2023-05-08T04:46:24.769Z,12.48
2023-05-08T04:48:51.215Z,12.60
2023-05-08T04:51:17.557Z,16.27
2023-05-08T04:53:43.931Z,14.48
2023-05-08T04:56:10.326Z,13.25
2023-05-08T04:58:36.660Z,18.35
2023-05-08T05:01:03.815Z,16.80
2023-05-08T05:03:30.243Z,18.25
2023-05-08T05:06:00.358Z,17.25
2023-05-08T05:08:27.305Z,21.80
2023-05-08T05:10:53.670Z,21.13
2023-05-08T05:13:20.277Z,17.73
2023-05-08T05:15:46.743Z,19.67
2023-05-08T05:18:13.174Z,19.95
2023-05-08T05:20:39.559Z,17.85
2023-05-08T05:23:05.860Z,19.00
2023-05-08T05:25:32.276Z,19.23
2023-05-08T05:27:58.556Z,21.58
2023-05-08T05:30:24.859Z,22.15
2023-05-08T05:32:51.172Z,22.85
2023-05-08T05:35:17.541Z,18.83
2023-05-08T05:37:43.904Z,17.88
2023-05-08T05:40:13.093Z,21.30
2023-05-08T05:42:39.417Z,16.80
2023-05-08T05:45:05.995Z,21.55
2023-05-08T05:47:32.348Z,25.77
2023-05-08T05:49:58.900Z,19.25
2023-05-08T05:52:25.282Z,27.30
2023-05-08T05:54:51.663Z,24.88
2023-05-08T05:57:18.028Z,22.13
2023-05-08T05:59:44.592Z,23.98
2023-05-08T06:02:14.442Z,23.48
2023-05-08T06:04:40.848Z,22.77
2023-05-08T06:07:07.169Z,21.38
2023-05-08T06:09:33.693Z,24.17
2023-05-08T06:12:00.021Z,25.17
2023-05-08T06:14:26.758Z,26.58
2023-05-08T06:16:53.172Z,24.67
2023-05-08T06:19:19.516Z,24.77
2023-05-08T06:21:45.828Z,27.38
2023-05-08T06:24:12.167Z,24.33
2023-05-08T06:26:38.503Z,26.55
2023-05-08T06:29:04.837Z,27.20
2023-05-08T06:31:31.312Z,26.90
2023-05-08T06:33:57.743Z,27.08
2023-05-08T06:36:24.089Z,28.52
2023-05-08T06:38:50.520Z,31.83
2023-05-08T06:41:16.861Z,29.25
2023-05-08T06:43:43.186Z,30.63
2023-05-08T06:46:09.585Z,30.63
2023-05-08T06:48:36.024Z,29.38
2023-05-08T06:51:03.644Z,30.05
2023-05-08T06:53:30.301Z,34.30
2023-05-08T06:55:59.787Z,29.45
2023-05-08T06:58:26.204Z,33.05
2023-05-08T07:00:52.551Z,29.02
2023-05-08T07:03:18.909Z,33.90
2023-05-08T07:05:45.260Z,82.30
2023-05-08T07:08:11.540Z,75.90
2023-05-08T07:10:37.926Z,78.68
2023-05-08T07:13:04.302Z,78.20
2023-05-08T07:15:33.468Z,83.38
2023-05-08T07:17:59.900Z,86.57
2023-05-08T07:20:26.418Z,86.30
2023-05-08T07:22:52.845Z,86.53
2023-05-08T07:25:19.181Z,90.28
2023-05-08T07:27:45.567Z,84.53
2023-05-08T07:30:11.997Z,86.25
2023-05-08T07:32:41.156Z,80.80
2023-05-08T07:35:11.011Z,84.45
2023-05-08T07:37:37.759Z,93.93
2023-05-08T07:40:04.223Z,97.70
2023-05-08T07:42:30.656Z,35.33
2023-05-08T07:44:56.958Z,36.40
2023-05-08T07:47:23.381Z,41.03
2023-05-08T07:49:49.816Z,42.88
2023-05-08T07:52:16.740Z,41.47
2023-05-08T07:54:43.852Z,42.03
2023-05-08T07:57:10.281Z,48.40
2023-05-08T07:59:36.577Z,80.22
2023-05-08T08:02:03.029Z,91.60
2023-05-08T08:04:29.526Z,98.05
2023-05-08T08:06:56.058Z,105.18
2023-05-08T08:09:22.391Z,93.25
2023-05-08T08:11:48.681Z,96.13
2023-05-08T08:14:15.051Z,100.18
2023-05-08T08:16:42.594Z,111.05
2023-05-08T08:19:09.099Z,99.05
2023-05-08T08:21:35.415Z,98.65
2023-05-08T08:24:01.831Z,111.00
2023-05-08T08:26:28.188Z,102.13
2023-05-08T08:28:54.483Z,109.43
2023-05-08T08:31:20.869Z,108.60
2023-05-08T08:33:47.191Z,125.45
2023-05-08T08:36:13.969Z,107.68
2023-05-08T08:38:40.531Z,99.72
2023-05-08T08:41:07.081Z,117.90
2023-05-08T08:43:34.607Z,110.57
2023-05-08T08:46:09.026Z,118.10
2023-05-08T08:48:37.364Z,126.50
2023-05-08T08:51:06.869Z,107.63
2023-05-08T08:53:37.367Z,101.38
2023-05-08T08:56:07.322Z,123.05
2023-05-08T08:58:38.977Z,122.15
2023-05-08T09:01:07.757Z,128.95
2023-05-08T09:03:34.316Z,127.07
2023-05-08T09:06:03.830Z,99.93
2023-05-08T09:08:30.651Z,138.35
2023-05-08T09:10:57.017Z,137.65
2023-05-08T09:13:23.482Z,149.98
2023-05-08T09:15:50.754Z,135.60
2023-05-08T09:18:17.616Z,135.05
2023-05-08T09:20:44.551Z,127.18
2023-05-08T09:23:11.453Z,139.10
2023-05-08T09:25:41.176Z,132.50
2023-05-08T09:28:15.618Z,150.55
2023-05-08T09:30:49.030Z,131.30
2023-05-08T09:33:15.634Z,157.00
2023-05-08T09:35:42.009Z,145.38
2023-05-08T09:38:08.297Z,148.30
2023-05-08T09:40:34.789Z,151.52
2023-05-08T09:43:13.916Z,170.32
2023-05-08T09:45:41.429Z,163.98
2023-05-08T09:48:08.823Z,150.73
2023-05-08T09:50:35.441Z,148.77
2023-05-08T09:53:01.800Z,148.95
2023-05-08T09:55:28.172Z,148.82
2023-05-08T09:57:58.112Z,151.80
2023-05-08T10:00:27.948Z,144.98
2023-05-08T10:02:56.199Z,136.10
2023-05-08T10:05:22.878Z,148.00
2023-05-08T10:07:49.362Z,145.13
2023-05-08T10:10:22.095Z,139.63
2023-05-08T10:12:48.460Z,142.45
2023-05-08T10:15:14.787Z,147.02
2023-05-08T10:17:44.041Z,139.73
2023-05-08T10:20:11.377Z,132.68
2023-05-08T10:22:37.924Z,135.68
2023-05-08T10:25:07.804Z,122.63
2023-05-08T10:27:55.265Z,136.20
2023-05-08T10:30:25.237Z,135.25
2023-05-08T10:32:55.243Z,141.88
2023-05-08T10:35:21.995Z,157.10
2023-05-08T10:37:48.945Z,140.38
2023-05-08T10:40:21.693Z,136.48
2023-05-08T10:42:48.401Z,143.98
2023-05-08T10:45:15.065Z,125.22
2023-05-08T10:47:46.049Z,137.73
2023-05-08T10:50:18.638Z,135.02
2023-05-08T10:52:51.119Z,121.82
2023-05-08T10:55:33.810Z,132.15
2023-05-08T10:58:03.610Z,128.52
2023-05-08T11:00:48.667Z,129.27
2023-05-08T11:03:29.951Z,132.88
2023-05-08T11:05:58.975Z,126.15
2023-05-08T11:08:27.341Z,133.43
2023-05-08T11:10:53.620Z,130.52
2023-05-08T11:13:27.475Z,130.00
2023-05-08T11:15:54.039Z,119.55
2023-05-08T11:18:21.990Z,126.45
2023-05-08T11:20:55.878Z,127.00
2023-05-08T11:23:25.079Z,120.18
2023-05-08T11:26:12.126Z,122.65
2023-05-08T11:28:39.375Z,15.32
2023-05-08T11:31:07.030Z,114.00
2023-05-08T11:33:34.360Z,110.85
2023-05-08T11:36:11.956Z,119.40
2023-05-08T11:38:38.519Z,115.43
2023-05-08T11:41:06.202Z,116.55
2023-05-08T11:43:32.626Z,104.80
2023-05-08T11:46:06.384Z,92.43
2023-05-08T11:48:33.319Z,81.70
2023-05-08T11:51:00.012Z,92.88
2023-05-08T11:53:26.690Z,79.20
2023-05-08T11:55:53.699Z,81.13
2023-05-08T11:58:20.142Z,90.45
2023-05-08T12:00:48.695Z,77.07
2023-05-08T12:03:19.064Z,77.32
2023-05-08T12:05:45.983Z,81.20
2023-05-08T12:08:13.375Z,73.03
2023-05-08T12:10:46.932Z,80.95
2023-05-08T12:13:29.481Z,71.10
2023-05-08T12:16:00.019Z,75.18
2023-05-08T12:18:27.702Z,74.53
2023-05-08T12:20:58.401Z,72.55
2023-05-08T12:23:25.023Z,69.07
2023-05-08T12:25:55.544Z,65.40
2023-05-08T12:28:22.152Z,58.67
2023-05-08T12:30:49.070Z,59.45
2023-05-08T12:33:16.164Z,60.08
2023-05-08T12:35:42.631Z,58.20
2023-05-08T12:38:09.102Z,56.88
2023-05-08T12:40:40.036Z,56.00
2023-05-08T12:43:06.326Z,52.95
2023-05-08T12:45:33.913Z,49.42
2023-05-08T12:48:04.042Z,47.40
2023-05-08T12:50:34.197Z,48.22
2023-05-08T12:53:19.984Z,47.65
2023-05-08T12:55:55.433Z,44.95
2023-05-08T12:58:26.126Z,41.22
2023-05-08T13:00:53.773Z,39.70
2023-05-08T13:03:29.679Z,35.58
2023-05-08T13:05:57.011Z,42.30
2023-05-08T13:08:49.756Z,48.70
2023-05-08T13:11:27.848Z,45.72
2023-05-08T13:13:54.148Z,45.47
2023-05-08T13:16:20.515Z,41.70
2023-05-08T13:18:46.852Z,44.60
2023-05-08T13:21:13.177Z,35.67
2023-05-08T13:23:40.048Z,34.13
2023-05-08T13:26:06.348Z,30.48
2023-05-08T13:28:32.665Z,37.17
2023-05-08T13:30:58.995Z,39.35
2023-05-08T13:33:25.322Z,36.53
2023-05-08T13:35:51.669Z,54.22
2023-05-08T13:38:18.024Z,40.92
2023-05-08T13:40:44.462Z,40.65
2023-05-08T13:43:10.790Z,40.60
2023-05-08T13:45:37.216Z,44.95
2023-05-08T13:48:04.173Z,45.42
2023-05-08T13:50:30.686Z,45.42
2023-05-08T13:52:57.126Z,44.90
2023-05-08T13:55:23.690Z,46.10
2023-05-08T13:57:50.209Z,48.08
2023-05-08T14:00:16.805Z,45.78
2023-05-08T14:02:44.354Z,44.72
2023-05-08T14:05:11.053Z,44.13
2023-05-08T14:07:37.653Z,53.92
2023-05-08T14:10:04.431Z,29.30
2023-05-08T14:12:30.987Z,41.65
2023-05-08T14:14:58.186Z,43.08
2023-05-08T14:17:24.557Z,57.42
2023-05-08T14:19:50.873Z,48.67
2023-05-08T14:22:17.283Z,46.22
2023-05-08T14:24:44.336Z,47.55
2023-05-08T14:27:10.770Z,48.30
2023-05-08T14:29:37.210Z,44.08
2023-05-08T14:32:03.874Z,43.90
2023-05-08T14:34:30.260Z,43.75
2023-05-08T14:36:56.680Z,42.83
2023-05-08T14:39:23.037Z,48.08
2023-05-08T14:42:10.301Z,43.58
2023-05-08T14:44:36.082Z,40.55
2023-05-08T14:47:02.417Z,46.50
2023-05-08T14:49:37.339Z,42.13
2023-05-08T14:52:05.474Z,47.25
2023-05-08T14:54:32.028Z,46.45
2023-05-08T14:56:58.453Z,45.75
2023-05-08T14:59:24.823Z,29.55
2023-05-08T15:01:51.361Z,32.05
2023-05-08T15:04:17.899Z,32.22
2023-05-08T15:06:44.386Z,26.08
2023-05-08T15:09:10.859Z,34.70
2023-05-08T15:11:37.248Z,27.98
2023-05-08T15:14:04.466Z,31.73
2023-05-08T15:16:31.103Z,33.65
2023-05-08T15:18:57.461Z,45.03
2023-05-08T15:21:26.581Z,52.35
2023-05-08T15:23:53.969Z,56.83
2023-05-08T15:26:20.922Z,57.40
2023-05-08T15:28:47.369Z,52.20
2023-05-08T15:31:15.528Z,52.63
2023-05-08T15:33:44.839Z,58.78
2023-05-08T15:36:12.188Z,50.33
2023-05-08T15:38:38.635Z,50.78
2023-05-08T15:41:05.236Z,51.15
2023-05-08T15:43:31.658Z,50.55
2023-05-08T15:45:58.031Z,47.30
2023-05-08T15:48:24.377Z,44.88
2023-05-08T15:50:50.820Z,51.53
2023-05-08T15:53:17.120Z,53.40
2023-05-08T15:55:43.477Z,54.50
2023-05-08T15:58:09.829Z,48.83
2023-05-08T16:00:44.159Z,43.65
2023-05-08T16:03:11.564Z,47.72
2023-05-08T16:05:39.425Z,54.72
2023-05-08T16:08:05.986Z,51.97
2023-05-08T16:10:32.338Z,47.55
2023-05-08T16:12:58.800Z,49.90
2023-05-08T16:15:25.408Z,50.30
2023-05-08T16:17:51.778Z,49.50
2023-05-08T16:20:18.122Z,47.90
2023-05-08T16:22:44.488Z,46.47
2023-05-08T16:25:11.088Z,53.85
2023-05-08T16:27:37.566Z,56.40
2023-05-08T16:30:04.288Z,49.55
2023-05-08T16:32:30.842Z,47.40
2023-05-08T16:34:57.197Z,50.28
2023-05-08T16:37:23.504Z,48.60
2023-05-08T16:39:49.822Z,32.40
2023-05-08T16:42:16.165Z,39.90
2023-05-08T16:44:42.503Z,35.40
2023-05-08T16:47:08.966Z,44.17
2023-05-08T16:49:35.465Z,46.47
2023-05-08T16:52:01.845Z,47.10
2023-05-08T16:54:28.169Z,48.63
2023-05-08T16:56:54.580Z,53.65
2023-05-08T16:59:20.915Z,51.80
2023-05-08T17:01:47.281Z,33.40
2023-05-08T17:04:13.631Z,38.67
2023-05-08T17:06:42.628Z,37.88
2023-05-08T17:09:09.052Z,38.58
2023-05-08T17:11:35.382Z,38.22
2023-05-08T17:14:01.846Z,42.65
2023-05-08T17:16:28.291Z,38.63
2023-05-08T17:18:54.912Z,26.90
2023-05-08T17:21:21.372Z,35.17
2023-05-08T17:23:47.707Z,39.88
2023-05-08T17:26:14.035Z,40.17
2023-05-08T17:28:40.378Z,36.53
2023-05-08T17:31:06.908Z,41.25
2023-05-08T17:33:33.577Z,38.28
2023-05-08T17:36:00.814Z,38.88
2023-05-08T17:38:27.807Z,39.70
2023-05-08T17:40:54.172Z,36.53
2023-05-08T17:43:20.881Z,40.28
2023-05-08T17:45:47.469Z,35.33
2023-05-08T17:48:14.166Z,39.47
2023-05-08T17:50:42.237Z,42.40
2023-05-08T17:53:08.754Z,28.33
2023-05-08T17:55:35.069Z,44.10
2023-05-08T17:58:01.475Z,50.15
2023-05-08T18:00:27.818Z,48.72
2023-05-08T18:02:54.530Z,41.22
2023-05-08T18:05:20.930Z,43.40
2023-05-08T18:07:47.230Z,49.10
2023-05-08T18:10:13.803Z,51.78
2023-05-08T18:12:40.489Z,50.92
2023-05-08T18:15:07.428Z,49.65
2023-05-08T18:17:33.792Z,52.33
2023-05-08T18:20:03.923Z,53.63
2023-05-08T18:22:31.089Z,49.92
2023-05-08T18:24:57.645Z,53.88
2023-05-08T18:27:24.325Z,55.22
2023-05-08T18:29:50.656Z,61.30
2023-05-08T18:32:17.089Z,52.05
2023-05-08T18:34:43.400Z,50.92
2023-05-08T18:37:09.900Z,53.10
2023-05-08T18:39:36.230Z,58.80
2023-05-08T18:42:02.556Z,64.85
2023-05-08T18:44:28.929Z,54.65
2023-05-08T18:46:56.363Z,54.38
2023-05-08T18:49:22.702Z,54.03
2023-05-08T18:51:52.112Z,60.85
2023-05-08T18:54:18.401Z,56.40
2023-05-08T18:56:44.854Z,40.83
2023-05-08T18:59:11.253Z,40.47
2023-05-08T19:01:37.732Z,35.60
2023-05-08T19:04:04.379Z,38.30
2023-05-08T19:06:31.392Z,58.15
2023-05-08T19:08:58.159Z,56.90
2023-05-08T19:11:25.994Z,58.42
2023-05-08T19:13:52.376Z,85.28
2023-05-08T19:16:18.726Z,80.28
2023-05-08T19:18:45.110Z,83.45
2023-05-08T19:21:11.415Z,97.13
2023-05-08T19:23:37.833Z,100.13
2023-05-08T19:26:04.279Z,103.03
2023-05-08T19:28:30.699Z,107.50
2023-05-08T19:30:57.017Z,106.75
2023-05-08T19:33:23.517Z,96.50
2023-05-08T19:35:50.017Z,107.68
2023-05-08T19:38:16.488Z,57.90
2023-05-08T19:40:55.747Z,63.40
2023-05-08T19:43:23.973Z,51.88
2023-05-08T19:45:50.309Z,80.55
2023-05-08T19:48:18.249Z,85.07
2023-05-08T19:50:44.910Z,83.88
2023-05-08T19:53:11.211Z,83.07
2023-05-08T19:55:37.520Z,79.03
2023-05-08T19:58:03.885Z,87.38
2023-05-08T20:00:30.218Z,90.82
2023-05-08T20:02:56.694Z,83.25
2023-05-08T20:05:23.463Z,89.43
2023-05-08T20:07:50.059Z,83.55
2023-05-08T20:10:17.018Z,96.47
2023-05-08T20:12:43.485Z,91.45
2023-05-08T20:15:10.052Z,88.75
2023-05-08T20:17:36.549Z,86.07
2023-05-08T20:20:03.320Z,98.95
2023-05-08T20:22:29.672Z,90.82
2023-05-08T20:24:56.100Z,103.30
2023-05-08T20:27:22.529Z,92.20
2023-05-08T20:29:48.838Z,212.02
2023-05-08T20:32:16.434Z,75.78
2023-05-08T20:34:44.521Z,81.18
2023-05-08T20:37:10.958Z,78.65
2023-05-08T20:39:37.323Z,74.10
2023-05-08T20:42:03.747Z,84.55
2023-05-08T20:44:30.083Z,76.32
2023-05-08T20:46:56.436Z,87.05
2023-05-08T20:49:22.762Z,85.72
2023-05-08T20:51:49.211Z,61.08
2023-05-08T20:54:15.504Z,74.18
2023-05-08T20:56:41.833Z,80.18
2023-05-08T20:59:08.375Z,80.13
2023-05-08T21:01:34.792Z,80.07
2023-05-08T21:04:01.180Z,88.30
2023-05-08T21:06:27.596Z,82.20
2023-05-08T21:08:54.060Z,92.30
2023-05-08T21:11:21.228Z,115.25
2023-05-08T21:13:47.666Z,113.70
2023-05-08T21:16:14.088Z,114.05
2023-05-08T21:18:40.545Z,116.68
2023-05-08T21:21:17.045Z,111.30
2023-05-08T21:23:43.567Z,102.53
2023-05-08T21:26:10.020Z,104.22
2023-05-08T21:28:36.411Z,109.57
2023-05-08T21:31:03.019Z,107.10
2023-05-08T21:33:29.772Z,120.20
2023-05-08T21:35:56.113Z,114.25
2023-05-08T21:38:22.423Z,107.70
2023-05-08T21:40:48.768Z,113.55
2023-05-08T21:43:15.068Z,108.45
2023-05-08T21:45:41.631Z,113.53
2023-05-08T21:48:08.000Z,72.35
2023-05-08T21:50:34.334Z,74.45
2023-05-08T21:53:01.747Z,89.80
2023-05-08T21:55:29.039Z,67.45
2023-05-08T21:57:56.217Z,70.38
2023-05-08T22:00:22.530Z,57.63
2023-05-08T22:02:49.026Z,77.78
2023-05-08T22:05:15.715Z,70.07
2023-05-08T22:07:42.216Z,96.65
2023-05-08T22:10:09.394Z,79.13
2023-05-08T22:12:35.825Z,89.97
2023-05-08T22:15:02.532Z,92.20
2023-05-08T22:17:28.884Z,100.53
2023-05-08T22:19:55.329Z,96.70
2023-05-08T22:22:22.017Z,90.75
2023-05-08T22:24:48.327Z,77.95
2023-05-08T22:27:14.676Z,81.57
2023-05-08T22:29:41.056Z,90.80
2023-05-08T22:32:08.392Z,83.30
2023-05-08T22:34:34.832Z,100.75
2023-05-08T22:37:01.301Z,83.07
2023-05-08T22:39:27.668Z,79.70
2023-05-08T22:41:54.369Z,101.45
2023-05-08T22:44:21.148Z,95.35
2023-05-08T22:46:47.671Z,86.88
2023-05-08T22:49:14.112Z,94.80
2023-05-08T22:51:40.472Z,103.03
2023-05-08T22:54:06.979Z,87.13
2023-05-08T22:56:33.487Z,105.10
2023-05-08T22:58:59.888Z,91.43
2023-05-08T23:01:26.344Z,102.57
2023-05-08T23:03:53.727Z,75.10
2023-05-08T23:06:20.702Z,85.60
2023-05-08T23:08:47.090Z,108.00
2023-05-08T23:11:13.641Z,88.07
2023-05-08T23:13:39.965Z,74.70
2023-05-08T23:16:06.615Z,106.63
2023-05-08T23:18:34.156Z,99.13
2023-05-08T23:21:06.988Z,82.85
2023-05-08T23:23:33.689Z,92.40
2023-05-08T23:26:01.165Z,64.00
2023-05-08T23:28:27.560Z,59.55
2023-05-08T23:30:54.005Z,59.70
2023-05-08T23:33:20.405Z,76.50
2023-05-08T23:35:46.790Z,57.20
2023-05-08T23:38:13.119Z,56.25
2023-05-08T23:40:39.414Z,48.40
2023-05-08T23:43:06.230Z,97.20
2023-05-08T23:45:32.556Z,80.75
2023-05-08T23:47:59.001Z,62.15
2023-05-08T23:50:25.595Z,85.07
2023-05-08T23:52:51.898Z,74.15
2023-05-08T23:55:18.273Z,91.82
2023-05-08T23:57:44.601Z,68.50
